createdAt,value
2018-02-22T00:00:58.882Z,81.16
2018-02-22T00:03:26.425Z,81.02
2018-02-22T00:05:53.892Z,81.00
2018-02-22T00:08:21.441Z,81.01
2018-02-22T00:10:48.926Z,81.06
2018-02-22T00:13:16.402Z,81.17
2018-02-22T00:15:43.970Z,81.38
2018-02-22T00:18:11.525Z,81.30
2018-02-22T00:20:38.991Z,81.27
2018-02-22T00:23:06.475Z,81.35
2018-02-22T00:25:34.038Z,81.54
2018-02-22T00:28:01.507Z,81.53
2018-02-22T00:30:28.992Z,81.53
2018-02-22T00:32:56.487Z,81.43
2018-02-22T00:35:23.946Z,81.33
2018-02-22T00:37:51.422Z,81.34
2018-02-22T00:40:18.975Z,81.32
2018-02-22T00:42:46.440Z,81.28
2018-02-22T00:45:13.909Z,81.29
2018-02-22T00:47:41.393Z,81.22
2018-02-22T00:50:08.859Z,81.28
2018-02-22T00:52:36.335Z,81.32
2018-02-22T00:55:03.842Z,81.41
2018-02-22T00:57:31.353Z,81.45
2018-02-22T00:59:58.932Z,81.58
2018-02-22T01:02:26.564Z,81.60
2018-02-22T01:04:54.035Z,81.41
2018-02-22T01:07:21.507Z,81.26
2018-02-22T01:09:49.007Z,81.04
2018-02-22T01:12:16.474Z,80.78
2018-02-22T01:14:43.969Z,80.77
2018-02-22T01:17:11.467Z,80.55
2018-02-22T01:19:38.987Z,80.34
2018-02-22T01:22:06.467Z,80.34
2018-02-22T01:24:33.942Z,80.37
2018-02-22T01:27:01.400Z,80.28
2018-02-22T01:29:28.906Z,80.18
2018-02-22T01:31:56.467Z,80.34
2018-02-22T01:34:23.934Z,80.36
2018-02-22T01:36:51.406Z,80.28
2018-02-22T01:39:18.883Z,80.30
2018-02-22T01:41:46.378Z,80.21
2018-02-22T01:44:13.838Z,80.13
2018-02-22T01:46:41.298Z,80.03
2018-02-22T01:49:08.778Z,79.89
2018-02-22T01:51:36.246Z,79.98
2018-02-22T01:54:03.785Z,80.03
2018-02-22T01:56:31.302Z,79.96
2018-02-22T01:58:58.757Z,79.92
2018-02-22T02:01:26.218Z,79.92
2018-02-22T02:03:53.731Z,80.06
2018-02-22T02:06:21.186Z,80.13
2018-02-22T02:08:48.727Z,80.41
2018-02-22T02:11:16.203Z,80.63
2018-02-22T02:13:43.671Z,80.57
2018-02-22T02:16:11.149Z,80.52
2018-02-22T02:18:38.634Z,80.56
2018-02-22T02:21:06.099Z,80.57
2018-02-22T02:23:33.563Z,80.52
2018-02-22T02:26:01.038Z,80.83
2018-02-22T02:28:28.570Z,80.93
2018-02-22T02:30:56.110Z,80.89
2018-02-22T02:33:23.584Z,81.01
2018-02-22T02:35:51.046Z,81.02
2018-02-22T02:38:18.605Z,81.06
2018-02-22T02:40:46.118Z,80.89
2018-02-22T02:43:13.551Z,80.89
2018-02-22T02:45:41.046Z,80.90
2018-02-22T02:48:08.503Z,80.78
2018-02-22T02:50:35.987Z,80.77
2018-02-22T02:53:03.462Z,80.79
2018-02-22T02:55:31.023Z,80.70
2018-02-22T02:57:58.502Z,80.76
2018-02-22T03:00:25.967Z,80.63
2018-02-22T03:02:53.444Z,80.50
2018-02-22T03:05:20.938Z,80.15
2018-02-22T03:07:48.397Z,80.00
2018-02-22T03:10:15.863Z,80.17
2018-02-22T03:12:43.443Z,80.00
2018-02-22T03:15:10.986Z,79.77
2018-02-22T03:17:38.554Z,79.62
2018-02-22T03:20:06.212Z,79.80
2018-02-22T03:22:33.708Z,79.91
2018-02-22T03:25:01.168Z,79.86
2018-02-22T03:27:28.643Z,80.04
2018-02-22T03:29:56.105Z,80.20
2018-02-22T03:32:23.568Z,80.27
2018-02-22T03:34:51.065Z,80.20
2018-02-22T03:37:18.622Z,80.30
2018-02-22T03:39:46.083Z,80.41
2018-02-22T03:42:13.557Z,80.43
2018-02-22T03:44:41.013Z,80.49
2018-02-22T03:47:08.476Z,80.58
2018-02-22T03:49:35.966Z,80.71
2018-02-22T03:52:03.426Z,80.62
2018-02-22T03:54:30.887Z,80.92
2018-02-22T03:56:58.390Z,81.06
2018-02-22T03:59:25.854Z,81.54
2018-02-22T04:01:53.315Z,81.94
2018-02-22T04:04:20.816Z,82.00
2018-02-22T04:06:48.275Z,82.30
2018-02-22T04:09:15.738Z,82.45
2018-02-22T04:11:43.211Z,82.79
2018-02-22T04:14:10.688Z,82.93
2018-02-22T04:16:38.241Z,83.04
2018-02-22T04:19:05.714Z,83.08
2018-02-22T04:21:33.199Z,83.11
2018-02-22T04:24:00.661Z,83.35
2018-02-22T04:26:28.117Z,83.54
2018-02-22T04:28:55.594Z,83.57
2018-02-22T04:31:23.080Z,83.62
2018-02-22T04:33:50.549Z,83.67
2018-02-22T04:36:18.015Z,84.25
2018-02-22T04:38:45.494Z,84.08
2018-02-22T04:41:13.006Z,84.18
2018-02-22T04:43:40.563Z,84.23
2018-02-22T04:46:09.092Z,83.71
2018-02-22T04:48:36.582Z,83.85
2018-02-22T04:51:04.065Z,84.03
2018-02-22T04:53:31.623Z,84.15
2018-02-22T04:55:59.109Z,84.21
2018-02-22T04:58:26.563Z,84.37
2018-02-22T05:00:54.031Z,84.41
2018-02-22T05:03:22.333Z,84.57
2018-02-22T05:05:49.791Z,84.76
2018-02-22T05:08:17.250Z,84.83
2018-02-22T05:10:44.746Z,84.70
2018-02-22T05:13:12.221Z,84.71
2018-02-22T05:15:39.685Z,84.62
2018-02-22T05:18:07.219Z,84.90
2018-02-22T05:20:34.771Z,84.78
2018-02-22T05:23:03.261Z,84.58
2018-02-22T05:25:30.749Z,84.47
2018-02-22T05:27:58.223Z,84.58
2018-02-22T05:30:25.709Z,84.70
2018-02-22T05:32:53.187Z,84.77
2018-02-22T05:35:20.678Z,84.85
2018-02-22T05:37:48.137Z,84.95
2018-02-22T05:40:15.598Z,84.88
2018-02-22T05:42:43.095Z,85.07
2018-02-22T05:45:10.570Z,84.73
2018-02-22T05:47:38.025Z,84.51
2018-02-22T05:50:05.522Z,84.54
2018-02-22T05:52:33.031Z,84.60
2018-02-22T05:55:00.490Z,84.72
2018-02-22T05:57:27.986Z,84.71
2018-02-22T05:59:55.522Z,84.82
2018-02-22T06:02:22.987Z,84.93
2018-02-22T06:04:50.492Z,84.88
2018-02-22T06:07:17.958Z,85.11
2018-02-22T06:09:45.430Z,85.73
2018-02-22T06:12:13.017Z,85.83
2018-02-22T06:14:40.565Z,85.63
2018-02-22T06:17:08.074Z,85.27
2018-02-22T06:19:35.569Z,84.69
2018-02-22T06:22:03.030Z,84.71
2018-02-22T06:24:30.494Z,84.66
2018-02-22T06:26:57.965Z,84.75
2018-02-22T06:29:25.460Z,84.85
2018-02-22T06:31:52.958Z,85.01
2018-02-22T06:34:20.450Z,85.21
2018-02-22T06:36:47.987Z,85.12
2018-02-22T06:39:15.482Z,84.95
2018-02-22T06:41:43.003Z,84.92
2018-02-22T06:44:10.563Z,84.74
2018-02-22T06:46:38.117Z,84.69
2018-02-22T06:49:05.690Z,84.70
2018-02-22T06:51:33.159Z,84.66
2018-02-22T06:54:00.650Z,84.41
2018-02-22T06:56:28.114Z,84.41
2018-02-22T06:58:55.590Z,84.35
2018-02-22T07:01:23.076Z,83.88
2018-02-22T07:03:50.542Z,83.72
2018-02-22T07:06:18.011Z,83.65
2018-02-22T07:08:45.534Z,83.63
2018-02-22T07:11:12.994Z,83.64
2018-02-22T07:13:40.456Z,83.30
2018-02-22T07:16:07.938Z,83.33
2018-02-22T07:18:35.479Z,83.42
2018-02-22T07:21:03.035Z,83.03
2018-02-22T07:23:30.590Z,82.89
2018-02-22T07:25:58.047Z,82.81
2018-02-22T07:28:25.606Z,82.61
2018-02-22T07:30:53.079Z,81.98
2018-02-22T07:33:20.548Z,81.91
2018-02-22T07:35:48.030Z,81.36
2018-02-22T07:38:15.489Z,81.22
2018-02-22T07:40:42.999Z,81.07
2018-02-22T07:43:10.509Z,80.88
2018-02-22T07:45:37.962Z,80.94
2018-02-22T07:48:05.418Z,80.55
2018-02-22T07:50:32.930Z,80.25
2018-02-22T07:53:00.393Z,80.10
2018-02-22T07:55:27.885Z,79.73
2018-02-22T07:57:55.364Z,79.61
2018-02-22T08:00:22.838Z,79.66
2018-02-22T08:02:50.302Z,79.11
2018-02-22T08:05:17.799Z,79.12
2018-02-22T08:07:45.261Z,78.69
2018-02-22T08:10:12.783Z,78.63
2018-02-22T08:12:40.274Z,78.47
2018-02-22T08:15:07.741Z,77.82
2018-02-22T08:17:35.265Z,78.12
2018-02-22T08:20:02.776Z,77.93
2018-02-22T08:22:30.319Z,77.16
2018-02-22T08:24:57.791Z,76.12
2018-02-22T08:27:25.294Z,76.38
2018-02-22T08:29:52.820Z,75.73
2018-02-22T08:32:20.305Z,75.40
2018-02-22T08:34:47.775Z,75.19
2018-02-22T08:37:15.323Z,75.31
2018-02-22T08:39:42.834Z,74.48
2018-02-22T08:42:10.291Z,73.42
2018-02-22T08:44:37.748Z,72.89
2018-02-22T08:47:05.226Z,72.09
2018-02-22T08:49:32.703Z,71.82
2018-02-22T08:52:00.162Z,71.20
2018-02-22T08:54:27.658Z,70.85
2018-02-22T08:56:55.114Z,70.14
2018-02-22T08:59:22.622Z,69.30
2018-02-22T09:01:50.109Z,68.93
2018-02-22T09:04:17.566Z,67.25
2018-02-22T09:06:45.018Z,66.96
2018-02-22T09:09:12.486Z,66.26
2018-02-22T09:11:40.035Z,66.00
2018-02-22T09:14:07.533Z,65.47
2018-02-22T09:16:34.994Z,64.72
2018-02-22T09:19:02.461Z,64.38
2018-02-22T09:21:29.939Z,63.85
2018-02-22T09:23:57.418Z,63.93
2018-02-22T09:26:24.882Z,63.42
2018-02-22T09:28:52.376Z,62.42
2018-02-22T09:31:19.838Z,61.35
2018-02-22T09:33:47.321Z,61.56
2018-02-22T09:36:14.773Z,60.15
2018-02-22T09:38:42.229Z,61.05
2018-02-22T09:41:09.718Z,59.88
2018-02-22T09:43:37.169Z,58.27
2018-02-22T09:46:04.632Z,57.33
2018-02-22T09:48:32.112Z,58.16
2018-02-22T09:50:59.573Z,59.19
2018-02-22T09:53:27.102Z,60.16
2018-02-22T09:55:54.669Z,59.19
2018-02-22T09:58:22.135Z,58.46
2018-02-22T10:00:49.594Z,58.38
2018-02-22T10:03:17.088Z,58.19
2018-02-22T10:05:44.551Z,57.98
2018-02-22T10:08:12.011Z,57.43
2018-02-22T10:10:39.518Z,56.58
2018-02-22T10:13:06.970Z,56.40
2018-02-22T10:15:34.528Z,56.76
2018-02-22T10:18:01.982Z,56.59
2018-02-22T10:20:29.438Z,55.29
2018-02-22T10:22:57.010Z,54.68
2018-02-22T10:25:24.515Z,53.93
2018-02-22T10:27:52.858Z,54.37
2018-02-22T10:30:20.411Z,54.63
2018-02-22T10:32:47.878Z,54.46
2018-02-22T10:35:15.360Z,54.01
2018-02-22T10:37:42.830Z,54.21
2018-02-22T10:40:10.283Z,53.22
2018-02-22T10:42:37.738Z,52.66
2018-02-22T10:45:05.223Z,52.66
2018-02-22T10:47:32.707Z,53.41
2018-02-22T10:50:00.275Z,54.06
2018-02-22T10:52:27.777Z,54.53
2018-02-22T10:54:55.290Z,54.23
2018-02-22T10:57:22.738Z,55.19
2018-02-22T10:59:50.220Z,55.13
2018-02-22T11:02:23.301Z,54.50
2018-02-22T11:04:50.891Z,53.57
2018-02-22T11:07:18.355Z,51.95
2018-02-22T11:09:45.805Z,50.16
2018-02-22T11:12:13.282Z,50.87
2018-02-22T11:14:40.745Z,51.51
2018-02-22T11:17:08.198Z,51.64
2018-02-22T11:19:35.685Z,50.76
2018-02-22T11:22:03.151Z,50.61
2018-02-22T11:24:30.609Z,50.04
2018-02-22T11:26:58.109Z,50.96
2018-02-22T11:29:25.647Z,50.94
2018-02-22T11:31:53.098Z,51.03
2018-02-22T11:34:20.573Z,50.94
2018-02-22T11:36:48.020Z,51.17
2018-02-22T11:39:15.481Z,50.52
2018-02-22T11:41:43.035Z,50.96
2018-02-22T11:44:10.511Z,51.07
2018-02-22T11:46:38.059Z,51.26
2018-02-22T11:49:05.577Z,50.93
2018-02-22T11:51:33.028Z,49.63
2018-02-22T11:54:00.487Z,50.13
2018-02-22T11:56:27.999Z,50.15
2018-02-22T11:58:55.458Z,51.06
2018-02-22T12:01:23.015Z,51.31
2018-02-22T12:03:50.490Z,51.70
2018-02-22T12:06:17.947Z,50.92
2018-02-22T12:08:45.491Z,50.56
2018-02-22T12:11:12.970Z,50.57
2018-02-22T12:13:40.461Z,50.68
2018-02-22T12:16:07.918Z,50.64
2018-02-22T12:18:35.417Z,50.93
2018-02-22T12:21:02.879Z,50.83
2018-02-22T12:23:30.335Z,50.84
2018-02-22T12:25:57.806Z,50.81
2018-02-22T12:28:25.254Z,50.94
2018-02-22T12:30:52.777Z,50.81
2018-02-22T12:33:20.267Z,50.49
2018-02-22T12:35:47.774Z,50.41
2018-02-22T12:38:15.335Z,50.04
2018-02-22T12:40:42.890Z,49.32
2018-02-22T12:43:10.346Z,48.60
2018-02-22T12:45:37.838Z,46.91
2018-02-22T12:48:05.362Z,45.11
2018-02-22T12:50:32.823Z,45.38
2018-02-22T12:53:00.274Z,45.48
2018-02-22T12:55:27.845Z,45.92
2018-02-22T12:57:55.296Z,46.40
2018-02-22T13:00:22.767Z,46.73
2018-02-22T13:02:50.314Z,46.80
2018-02-22T13:05:17.822Z,46.97
2018-02-22T13:07:45.278Z,47.83
2018-02-22T13:10:12.786Z,48.13
2018-02-22T13:12:40.346Z,48.46
2018-02-22T13:15:07.806Z,49.92
2018-02-22T13:17:35.290Z,50.46
2018-02-22T13:20:02.747Z,50.71
2018-02-22T13:22:30.278Z,51.36
2018-02-22T13:24:57.758Z,50.93
2018-02-22T13:27:25.243Z,51.10
2018-02-22T13:29:52.710Z,50.88
2018-02-22T13:32:20.187Z,51.11
2018-02-22T13:34:47.646Z,51.26
2018-02-22T13:37:26.814Z,51.64
2018-02-22T13:39:54.267Z,51.28
2018-02-22T13:42:21.761Z,49.78
2018-02-22T13:45:01.042Z,49.57
2018-02-22T13:47:28.552Z,49.34
2018-02-22T13:50:07.922Z,49.21
2018-02-22T13:52:35.409Z,48.34
2018-02-22T13:55:02.954Z,47.46
2018-02-22T13:57:30.411Z,46.62
2018-02-22T13:59:57.905Z,45.57
2018-02-22T14:02:26.161Z,45.22
2018-02-22T14:04:53.642Z,45.13
2018-02-22T14:07:21.111Z,44.79
2018-02-22T14:09:48.670Z,44.78
2018-02-22T14:12:16.139Z,43.56
2018-02-22T14:14:43.633Z,44.52
2018-02-22T14:17:11.103Z,45.25
2018-02-22T14:19:38.650Z,45.48
2018-02-22T14:22:06.114Z,45.54
2018-02-22T14:24:33.615Z,45.05
2018-02-22T14:27:01.087Z,45.17
2018-02-22T14:29:28.542Z,45.35
2018-02-22T14:31:56.013Z,45.59
2018-02-22T14:34:23.473Z,45.31
2018-02-22T14:36:50.965Z,45.10
2018-02-22T14:39:18.422Z,44.80
2018-02-22T14:41:45.968Z,45.64
2018-02-22T14:44:13.419Z,45.68
2018-02-22T14:46:40.882Z,46.27
2018-02-22T14:49:08.347Z,46.79
2018-02-22T14:51:35.814Z,47.07
2018-02-22T14:54:03.274Z,47.92
2018-02-22T14:56:30.735Z,48.43
2018-02-22T14:58:58.274Z,48.32
2018-02-22T15:01:25.749Z,48.81
2018-02-22T15:03:53.210Z,49.00
2018-02-22T15:06:20.742Z,48.97
2018-02-22T15:08:48.194Z,48.96
2018-02-22T15:11:15.657Z,49.15
2018-02-22T15:13:43.130Z,49.15
2018-02-22T15:16:10.593Z,49.28
2018-02-22T15:18:38.131Z,49.75
2018-02-22T15:21:05.597Z,49.95
2018-02-22T15:23:33.149Z,49.56
2018-02-22T15:26:00.598Z,49.37
2018-02-22T15:28:28.080Z,49.83
2018-02-22T15:30:55.570Z,50.10
2018-02-22T15:33:23.022Z,49.48
2018-02-22T15:35:50.491Z,50.27
2018-02-22T15:38:18.028Z,50.35
2018-02-22T15:40:45.474Z,50.56
2018-02-22T15:43:12.927Z,50.65
2018-02-22T15:45:40.475Z,51.10
2018-02-22T15:48:07.926Z,51.51
2018-02-22T15:50:35.401Z,51.52
2018-02-22T15:53:02.890Z,51.82
2018-02-22T15:55:30.370Z,51.90
2018-02-22T15:57:57.824Z,52.35
2018-02-22T16:00:25.290Z,52.52
2018-02-22T16:02:52.763Z,53.15
2018-02-22T16:05:20.214Z,53.76
2018-02-22T16:07:47.690Z,54.38
2018-02-22T16:10:15.154Z,54.68
2018-02-22T16:12:42.610Z,55.19
2018-02-22T16:15:10.167Z,55.58
2018-02-22T16:17:37.622Z,56.07
2018-02-22T16:20:05.095Z,56.07
2018-02-22T16:22:32.646Z,56.37
2018-02-22T16:25:00.135Z,56.30
2018-02-22T16:27:27.650Z,56.53
2018-02-22T16:29:55.127Z,56.88
2018-02-22T16:32:22.594Z,56.83
2018-02-22T16:34:50.046Z,57.06
2018-02-22T16:37:17.506Z,57.15
2018-02-22T16:39:45.034Z,57.33
2018-02-22T16:42:12.486Z,57.38
2018-02-22T16:44:39.982Z,57.17
2018-02-22T16:47:07.441Z,57.06
2018-02-22T16:49:34.917Z,56.92
2018-02-22T16:52:02.366Z,56.71
2018-02-22T16:54:29.837Z,56.53
2018-02-22T16:56:57.365Z,56.54
2018-02-22T16:59:24.953Z,56.76
2018-02-22T17:01:52.509Z,56.98
2018-02-22T17:04:19.963Z,56.97
2018-02-22T17:06:47.435Z,57.50
2018-02-22T17:09:14.927Z,57.80
2018-02-22T17:11:42.493Z,57.96
2018-02-22T17:14:09.951Z,58.93
2018-02-22T17:16:37.456Z,59.35
2018-02-22T17:19:04.923Z,59.77
2018-02-22T17:21:32.394Z,60.17
2018-02-22T17:23:59.890Z,60.23
2018-02-22T17:26:33.039Z,59.97
2018-02-22T17:29:06.139Z,60.10
2018-02-22T17:31:39.102Z,60.08
2018-02-22T17:34:06.562Z,60.35
2018-02-22T17:36:38.598Z,60.66
2018-02-22T17:39:17.739Z,60.62
2018-02-22T17:41:45.230Z,60.60
2018-02-22T17:44:12.686Z,60.77
2018-02-22T17:46:40.146Z,60.65
2018-02-22T17:49:07.631Z,61.05
2018-02-22T17:51:35.083Z,61.24
2018-02-22T17:54:02.545Z,61.60
2018-02-22T17:56:30.019Z,61.71
2018-02-22T17:58:57.474Z,61.63
2018-02-22T18:01:24.941Z,61.65
2018-02-22T18:03:52.445Z,62.23
2018-02-22T18:06:19.918Z,61.73
2018-02-22T18:08:47.374Z,62.05
2018-02-22T18:11:15.434Z,62.37
2018-02-22T18:13:43.106Z,62.57
2018-02-22T18:16:10.622Z,62.49
2018-02-22T18:18:38.422Z,62.53
2018-02-22T18:21:06.031Z,62.54
2018-02-22T18:23:34.112Z,62.62
2018-02-22T18:26:02.151Z,62.80
2018-02-22T18:28:29.678Z,62.73
2018-02-22T18:30:57.707Z,62.87
2018-02-22T18:33:25.249Z,62.83
2018-02-22T18:35:52.733Z,62.68
2018-02-22T18:38:20.244Z,62.78
2018-02-22T18:40:53.262Z,62.24
2018-02-22T18:43:26.309Z,62.32
2018-02-22T18:45:53.784Z,62.20
2018-02-22T18:48:21.265Z,62.17
2018-02-22T18:50:48.749Z,62.32
2018-02-22T18:53:16.210Z,62.33
2018-02-22T18:55:43.674Z,62.04
2018-02-22T18:58:11.547Z,62.24
2018-02-22T19:00:38.989Z,62.23
2018-02-22T19:03:06.694Z,62.34
2018-02-22T19:05:34.245Z,62.51
2018-02-22T19:08:01.708Z,62.55
2018-02-22T19:10:29.264Z,62.59
2018-02-22T19:12:56.845Z,62.71
2018-02-22T19:15:24.338Z,63.07
2018-02-22T19:17:51.823Z,63.22
2018-02-22T19:20:19.270Z,62.96
2018-02-22T19:22:46.814Z,62.74
2018-02-22T19:25:14.275Z,62.93
2018-02-22T19:27:41.810Z,63.19
2018-02-22T19:30:09.351Z,63.06
2018-02-22T19:32:36.805Z,62.98
2018-02-22T19:35:04.282Z,63.29
2018-02-22T19:37:31.758Z,63.21
2018-02-22T19:39:59.274Z,63.28
2018-02-22T19:42:26.818Z,63.52
2018-02-22T19:44:54.282Z,63.73
2018-02-22T19:47:21.792Z,63.48
2018-02-22T19:49:49.269Z,63.58
2018-02-22T19:52:16.719Z,63.87
2018-02-22T19:54:44.180Z,64.18
2018-02-22T19:57:11.679Z,63.83
2018-02-22T19:59:39.133Z,63.77
2018-02-22T20:02:06.598Z,63.40
2018-02-22T20:04:34.061Z,63.33
2018-02-22T20:07:01.549Z,63.48
2018-02-22T20:09:29.067Z,63.17
2018-02-22T20:11:56.621Z,63.08
2018-02-22T20:14:24.126Z,63.14
2018-02-22T20:16:51.625Z,62.93
2018-02-22T20:19:19.049Z,62.79
2018-02-22T20:21:46.519Z,62.81
2018-02-22T20:24:14.005Z,63.01
2018-02-22T20:26:41.478Z,62.65
2018-02-22T20:29:08.926Z,62.75
2018-02-22T20:31:36.398Z,62.66
2018-02-22T20:34:03.862Z,62.88
2018-02-22T20:36:31.326Z,63.04
2018-02-22T20:38:58.814Z,62.76
2018-02-22T20:41:26.266Z,62.82
2018-02-22T20:43:53.791Z,62.77
2018-02-22T20:46:21.335Z,63.02
2018-02-22T20:48:48.798Z,62.75
2018-02-22T20:51:21.818Z,62.67
2018-02-22T20:53:49.286Z,62.85
2018-02-22T20:56:16.736Z,62.65
2018-02-22T20:58:44.197Z,62.28
2018-02-22T21:01:11.671Z,61.77
2018-02-22T21:03:39.610Z,61.12
2018-02-22T21:06:07.086Z,61.81
2018-02-22T21:08:34.555Z,61.87
2018-02-22T21:11:02.029Z,61.78
2018-02-22T21:13:29.494Z,61.63
2018-02-22T21:15:56.958Z,61.31
2018-02-22T21:18:24.519Z,61.37
2018-02-22T21:20:51.978Z,60.67
2018-02-22T21:23:19.451Z,60.74
2018-02-22T21:25:46.916Z,62.18
2018-02-22T21:28:14.451Z,61.23
2018-02-22T21:30:41.934Z,61.72
2018-02-22T21:33:09.393Z,61.79
2018-02-22T21:35:36.866Z,61.96
2018-02-22T21:38:04.432Z,62.01
2018-02-22T21:40:31.907Z,62.11
2018-02-22T21:42:59.360Z,61.73
2018-02-22T21:45:26.856Z,61.83
2018-02-22T21:47:54.437Z,61.61
2018-02-22T21:50:21.965Z,61.59
2018-02-22T21:52:49.427Z,61.55
2018-02-22T21:55:16.987Z,61.11
2018-02-22T21:57:44.442Z,61.30
2018-02-22T22:00:11.903Z,61.41
2018-02-22T22:02:39.411Z,61.34
2018-02-22T22:05:06.870Z,60.94
2018-02-22T22:07:34.442Z,60.57
2018-02-22T22:10:01.902Z,61.12
2018-02-22T22:12:29.359Z,61.36
2018-02-22T22:14:56.831Z,61.74
2018-02-22T22:17:24.306Z,61.31
2018-02-22T22:19:51.799Z,61.64
2018-02-22T22:22:19.250Z,61.03
2018-02-22T22:24:46.839Z,60.81
2018-02-22T22:27:14.283Z,59.75
2018-02-22T22:29:41.803Z,59.49
2018-02-22T22:32:09.280Z,58.43
2018-02-22T22:34:36.750Z,58.93
2018-02-22T22:37:04.233Z,59.09
2018-02-22T22:39:31.696Z,58.23
2018-02-22T22:41:59.154Z,58.45
2018-02-22T22:44:26.659Z,58.48
2018-02-22T22:46:54.118Z,58.22
2018-02-22T22:49:21.594Z,57.92
2018-02-22T22:51:49.124Z,57.97
2018-02-22T22:54:16.622Z,55.79
2018-02-22T22:56:44.079Z,55.47
2018-02-22T22:59:11.622Z,55.67
2018-02-22T23:01:39.106Z,54.75
2018-02-22T23:04:06.619Z,54.94
2018-02-22T23:06:34.190Z,54.81
2018-02-22T23:09:01.654Z,54.43
2018-02-22T23:11:29.139Z,53.70
2018-02-22T23:13:56.598Z,54.06
2018-02-22T23:16:24.106Z,54.39
2018-02-22T23:18:51.577Z,53.50
2018-02-22T23:21:19.094Z,53.38
2018-02-22T23:23:46.570Z,53.14
2018-02-22T23:26:14.131Z,53.47
2018-02-22T23:28:41.620Z,53.97
2018-02-22T23:31:09.097Z,53.82
2018-02-22T23:33:36.561Z,54.37
2018-02-22T23:36:04.034Z,54.81
2018-02-22T23:38:31.502Z,55.34
2018-02-22T23:40:59.869Z,55.22
2018-02-22T23:43:27.331Z,55.51
2018-02-22T23:45:54.803Z,56.00
2018-02-22T23:48:22.257Z,55.75
2018-02-22T23:50:49.743Z,56.45
2018-02-22T23:53:17.214Z,56.30
2018-02-22T23:55:44.711Z,56.09
2018-02-22T23:58:12.184Z,56.08
